sensor_id;sensor_type;location;lat;lon;timestamp;P1;durP1;ratioP1;P2;durP2;ratioP2
17650;SDS011;26663;59.302;18.082;2023-06-04T00:00:17;1.60;;;1.60;;
17650;SDS011;26663;59.302;18.082;2023-06-04T00:03:22;1.40;;;1.40;;
17650;SDS011;26663;59.302;18.082;2023-06-04T00:06:28;1.80;;;1.70;;
17650;SDS011;26663;59.302;18.082;2023-06-04T00:09:33;5.30;;;2.05;;
17650;SDS011;26663;59.302;18.082;2023-06-04T00:12:38;1.70;;;1.70;;
17650;SDS011;26663;59.302;18.082;2023-06-04T00:15:45;3.70;;;1.90;;
17650;SDS011;26663;59.302;18.082;2023-06-04T00:18:50;1.42;;;1.42;;
17650;SDS011;26663;59.302;18.082;2023-06-04T00:21:55;1.45;;;1.45;;
17650;SDS011;26663;59.302;18.082;2023-06-04T00:25:00;2.10;;;2.00;;
17650;SDS011;26663;59.302;18.082;2023-06-04T00:28:07;1.60;;;1.60;;
17650;SDS011;26663;59.302;18.082;2023-06-04T00:31:14;2.13;;;1.90;;
17650;SDS011;26663;59.302;18.082;2023-06-04T00:34:19;1.45;;;1.45;;
17650;SDS011;26663;59.302;18.082;2023-06-04T00:37:25;1.35;;;1.35;;
17650;SDS011;26663;59.302;18.082;2023-06-04T00:40:31;1.33;;;1.33;;
17650;SDS011;26663;59.302;18.082;2023-06-04T00:43:37;1.58;;;1.58;;
17650;SDS011;26663;59.302;18.082;2023-06-04T00:46:44;1.20;;;1.20;;
17650;SDS011;26663;59.302;18.082;2023-06-04T00:49:56;1.70;;;1.70;;
17650;SDS011;26663;59.302;18.082;2023-06-04T00:53:02;1.45;;;1.45;;
17650;SDS011;26663;59.302;18.082;2023-06-04T00:56:09;1.17;;;1.17;;
17650;SDS011;26663;59.302;18.082;2023-06-04T00:59:14;1.65;;;1.55;;
17650;SDS011;26663;59.302;18.082;2023-06-04T01:02:22;1.63;;;1.63;;
17650;SDS011;26663;59.302;18.082;2023-06-04T01:05:29;1.73;;;1.65;;
17650;SDS011;26663;59.302;18.082;2023-06-04T01:08:38;1.30;;;1.30;;
17650;SDS011;26663;59.302;18.082;2023-06-04T01:11:45;2.03;;;1.50;;
17650;SDS011;26663;59.302;18.082;2023-06-04T01:14:50;1.60;;;1.60;;
17650;SDS011;26663;59.302;18.082;2023-06-04T01:17:58;1.70;;;1.63;;
17650;SDS011;26663;59.302;18.082;2023-06-04T01:21:07;1.80;;;1.70;;
17650;SDS011;26663;59.302;18.082;2023-06-04T01:24:15;1.52;;;1.40;;
17650;SDS011;26663;59.302;18.082;2023-06-04T01:27:20;1.75;;;1.65;;
17650;SDS011;26663;59.302;18.082;2023-06-04T01:30:28;1.40;;;1.40;;
17650;SDS011;26663;59.302;18.082;2023-06-04T01:33:35;1.40;;;1.40;;
17650;SDS011;26663;59.302;18.082;2023-06-04T01:36:41;1.40;;;1.40;;
17650;SDS011;26663;59.302;18.082;2023-06-04T01:39:47;1.30;;;1.30;;
17650;SDS011;26663;59.302;18.082;2023-06-04T01:42:53;1.30;;;1.30;;
17650;SDS011;26663;59.302;18.082;2023-06-04T01:45:58;1.50;;;1.40;;
17650;SDS011;26663;59.302;18.082;2023-06-04T01:49:05;1.52;;;1.52;;
17650;SDS011;26663;59.302;18.082;2023-06-04T01:52:10;1.73;;;1.70;;
17650;SDS011;26663;59.302;18.082;2023-06-04T01:55:16;1.30;;;1.30;;
17650;SDS011;26663;59.302;18.082;2023-06-04T01:58:22;1.30;;;1.30;;
17650;SDS011;26663;59.302;18.082;2023-06-04T02:01:29;1.60;;;1.60;;
17650;SDS011;26663;59.302;18.082;2023-06-04T02:04:36;1.40;;;1.40;;
17650;SDS011;26663;59.302;18.082;2023-06-04T02:07:45;1.45;;;1.35;;
17650;SDS011;26663;59.302;18.082;2023-06-04T02:10:51;1.45;;;1.45;;
17650;SDS011;26663;59.302;18.082;2023-06-04T02:13:57;1.40;;;1.40;;
17650;SDS011;26663;59.302;18.082;2023-06-04T02:17:02;2.55;;;1.67;;
17650;SDS011;26663;59.302;18.082;2023-06-04T02:20:10;1.70;;;1.60;;
17650;SDS011;26663;59.302;18.082;2023-06-04T02:23:16;1.48;;;1.48;;
17650;SDS011;26663;59.302;18.082;2023-06-04T02:26:22;1.90;;;1.90;;
17650;SDS011;26663;59.302;18.082;2023-06-04T02:29:28;2.15;;;2.00;;
17650;SDS011;26663;59.302;18.082;2023-06-04T02:32:33;1.65;;;1.65;;
17650;SDS011;26663;59.302;18.082;2023-06-04T02:35:40;1.77;;;1.77;;
17650;SDS011;26663;59.302;18.082;2023-06-04T02:38:45;2.30;;;1.77;;
17650;SDS011;26663;59.302;18.082;2023-06-04T02:41:51;2.10;;;2.00;;
17650;SDS011;26663;59.302;18.082;2023-06-04T02:44:56;1.40;;;1.40;;
17650;SDS011;26663;59.302;18.082;2023-06-04T02:48:01;1.70;;;1.70;;
17650;SDS011;26663;59.302;18.082;2023-06-04T02:51:09;1.80;;;1.70;;
17650;SDS011;26663;59.302;18.082;2023-06-04T02:54:14;1.42;;;1.40;;
17650;SDS011;26663;59.302;18.082;2023-06-04T02:57:19;1.20;;;1.20;;
17650;SDS011;26663;59.302;18.082;2023-06-04T03:00:25;3.05;;;1.10;;
17650;SDS011;26663;59.302;18.082;2023-06-04T03:03:30;1.08;;;1.08;;
17650;SDS011;26663;59.302;18.082;2023-06-04T03:06:37;1.05;;;1.00;;
17650;SDS011;26663;59.302;18.082;2023-06-04T03:09:42;1.00;;;1.00;;
17650;SDS011;26663;59.302;18.082;2023-06-04T03:12:47;1.00;;;1.00;;
17650;SDS011;26663;59.302;18.082;2023-06-04T03:15:52;2.00;;;0.93;;
17650;SDS011;26663;59.302;18.082;2023-06-04T03:18:58;0.90;;;0.90;;
17650;SDS011;26663;59.302;18.082;2023-06-04T03:22:05;0.90;;;0.90;;
17650;SDS011;26663;59.302;18.082;2023-06-04T03:25:11;0.85;;;0.85;;
17650;SDS011;26663;59.302;18.082;2023-06-04T03:28:16;0.90;;;0.90;;
17650;SDS011;26663;59.302;18.082;2023-06-04T03:31:22;0.77;;;0.77;;
17650;SDS011;26663;59.302;18.082;2023-06-04T03:34:28;0.98;;;0.98;;
17650;SDS011;26663;59.302;18.082;2023-06-04T03:37:38;0.90;;;0.90;;
17650;SDS011;26663;59.302;18.082;2023-06-04T03:40:45;0.90;;;0.90;;
17650;SDS011;26663;59.302;18.082;2023-06-04T03:43:50;0.90;;;0.90;;
17650;SDS011;26663;59.302;18.082;2023-06-04T03:46:56;0.80;;;0.80;;
17650;SDS011;26663;59.302;18.082;2023-06-04T03:50:03;1.00;;;1.00;;
17650;SDS011;26663;59.302;18.082;2023-06-04T03:53:11;1.00;;;1.00;;
17650;SDS011;26663;59.302;18.082;2023-06-04T03:56:16;0.90;;;0.90;;
17650;SDS011;26663;59.302;18.082;2023-06-04T03:59:22;0.90;;;0.90;;
17650;SDS011;26663;59.302;18.082;2023-06-04T04:02:27;1.00;;;1.00;;
17650;SDS011;26663;59.302;18.082;2023-06-04T04:05:32;0.98;;;0.98;;
17650;SDS011;26663;59.302;18.082;2023-06-04T04:08:40;0.82;;;0.82;;
17650;SDS011;26663;59.302;18.082;2023-06-04T04:11:48;1.33;;;0.95;;
17650;SDS011;26663;59.302;18.082;2023-06-04T04:14:54;11.18;;;1.10;;
17650;SDS011;26663;59.302;18.082;2023-06-04T04:18:00;1.05;;;1.00;;
17650;SDS011;26663;59.302;18.082;2023-06-04T04:21:08;0.90;;;0.90;;
17650;SDS011;26663;59.302;18.082;2023-06-04T04:24:23;0.95;;;0.95;;
17650;SDS011;26663;59.302;18.082;2023-06-04T04:27:32;0.90;;;0.90;;
17650;SDS011;26663;59.302;18.082;2023-06-04T04:30:43;0.82;;;0.82;;
17650;SDS011;26663;59.302;18.082;2023-06-04T04:33:51;0.70;;;0.70;;
17650;SDS011;26663;59.302;18.082;2023-06-04T04:36:56;0.93;;;0.93;;
17650;SDS011;26663;59.302;18.082;2023-06-04T04:40:04;2.25;;;0.80;;
17650;SDS011;26663;59.302;18.082;2023-06-04T04:43:14;3.88;;;0.90;;
17650;SDS011;26663;59.302;18.082;2023-06-04T04:46:19;0.80;;;0.80;;
17650;SDS011;26663;59.302;18.082;2023-06-04T04:49:24;0.90;;;0.82;;
17650;SDS011;26663;59.302;18.082;2023-06-04T04:52:30;0.95;;;0.95;;
17650;SDS011;26663;59.302;18.082;2023-06-04T04:55:37;1.00;;;1.00;;
17650;SDS011;26663;59.302;18.082;2023-06-04T04:58:42;0.90;;;0.90;;
17650;SDS011;26663;59.302;18.082;2023-06-04T05:01:47;0.70;;;0.70;;
17650;SDS011;26663;59.302;18.082;2023-06-04T05:04:53;0.73;;;0.70;;
17650;SDS011;26663;59.302;18.082;2023-06-04T05:07:58;0.90;;;0.90;;
17650;SDS011;26663;59.302;18.082;2023-06-04T05:11:11;0.90;;;0.90;;
17650;SDS011;26663;59.302;18.082;2023-06-04T05:14:16;1.48;;;0.80;;
17650;SDS011;26663;59.302;18.082;2023-06-04T05:17:22;0.80;;;0.80;;
17650;SDS011;26663;59.302;18.082;2023-06-04T05:20:38;4.95;;;0.90;;
17650;SDS011;26663;59.302;18.082;2023-06-04T05:23:46;0.70;;;0.70;;
17650;SDS011;26663;59.302;18.082;2023-06-04T05:33:07;1.65;;;0.70;;
17650;SDS011;26663;59.302;18.082;2023-06-04T05:36:30;0.70;;;0.70;;
17650;SDS011;26663;59.302;18.082;2023-06-04T05:39:38;0.70;;;0.70;;
17650;SDS011;26663;59.302;18.082;2023-06-04T05:42:49;0.70;;;0.70;;
17650;SDS011;26663;59.302;18.082;2023-06-04T05:45:54;0.60;;;0.60;;
17650;SDS011;26663;59.302;18.082;2023-06-04T05:49:00;0.80;;;0.80;;
17650;SDS011;26663;59.302;18.082;2023-06-04T05:52:05;0.70;;;0.70;;
17650;SDS011;26663;59.302;18.082;2023-06-04T05:55:10;1.20;;;1.20;;
17650;SDS011;26663;59.302;18.082;2023-06-04T05:58:19;0.70;;;0.70;;
17650;SDS011;26663;59.302;18.082;2023-06-04T06:01:25;0.80;;;0.80;;
17650;SDS011;26663;59.302;18.082;2023-06-04T06:04:31;0.70;;;0.70;;
17650;SDS011;26663;59.302;18.082;2023-06-04T06:07:36;2.10;;;0.80;;
17650;SDS011;26663;59.302;18.082;2023-06-04T06:10:42;0.70;;;0.70;;
17650;SDS011;26663;59.302;18.082;2023-06-04T06:13:48;5.93;;;0.77;;
17650;SDS011;26663;59.302;18.082;2023-06-04T06:16:54;0.60;;;0.60;;
17650;SDS011;26663;59.302;18.082;2023-06-04T06:19:59;0.80;;;0.80;;
17650;SDS011;26663;59.302;18.082;2023-06-04T06:23:09;0.70;;;0.70;;
17650;SDS011;26663;59.302;18.082;2023-06-04T06:26:18;0.70;;;0.70;;
17650;SDS011;26663;59.302;18.082;2023-06-04T06:29:30;0.68;;;0.68;;
17650;SDS011;26663;59.302;18.082;2023-06-04T06:32:36;0.60;;;0.60;;
17650;SDS011;26663;59.302;18.082;2023-06-04T06:35:41;0.60;;;0.60;;
17650;SDS011;26663;59.302;18.082;2023-06-04T06:38:49;0.60;;;0.60;;
17650;SDS011;26663;59.302;18.082;2023-06-04T06:41:55;0.60;;;0.60;;
17650;SDS011;26663;59.302;18.082;2023-06-04T06:45:07;0.70;;;0.70;;
17650;SDS011;26663;59.302;18.082;2023-06-04T06:48:13;0.50;;;0.50;;
17650;SDS011;26663;59.302;18.082;2023-06-04T06:51:19;0.70;;;0.70;;
17650;SDS011;26663;59.302;18.082;2023-06-04T06:54:24;0.57;;;0.57;;
17650;SDS011;26663;59.302;18.082;2023-06-04T06:57:30;0.70;;;0.70;;
17650;SDS011;26663;59.302;18.082;2023-06-04T07:00:38;0.68;;;0.68;;
17650;SDS011;26663;59.302;18.082;2023-06-04T07:03:43;0.70;;;0.70;;
17650;SDS011;26663;59.302;18.082;2023-06-04T07:06:48;0.80;;;0.80;;
17650;SDS011;26663;59.302;18.082;2023-06-04T07:09:54;0.70;;;0.70;;
17650;SDS011;26663;59.302;18.082;2023-06-04T07:12:59;0.80;;;0.80;;
17650;SDS011;26663;59.302;18.082;2023-06-04T07:16:05;0.60;;;0.60;;
17650;SDS011;26663;59.302;18.082;2023-06-04T07:19:11;0.80;;;0.80;;
17650;SDS011;26663;59.302;18.082;2023-06-04T07:22:16;1.85;;;0.68;;
17650;SDS011;26663;59.302;18.082;2023-06-04T07:25:21;0.73;;;0.73;;
17650;SDS011;26663;59.302;18.082;2023-06-04T07:28:28;0.73;;;0.73;;
17650;SDS011;26663;59.302;18.082;2023-06-04T07:31:35;0.60;;;0.60;;
17650;SDS011;26663;59.302;18.082;2023-06-04T07:34:40;1.27;;;0.70;;
17650;SDS011;26663;59.302;18.082;2023-06-04T07:37:45;1.75;;;0.77;;
17650;SDS011;26663;59.302;18.082;2023-06-04T07:40:51;0.60;;;0.60;;
17650;SDS011;26663;59.302;18.082;2023-06-04T07:43:56;1.38;;;0.60;;
17650;SDS011;26663;59.302;18.082;2023-06-04T07:47:03;0.57;;;0.57;;
17650;SDS011;26663;59.302;18.082;2023-06-04T07:50:10;0.57;;;0.57;;
17650;SDS011;26663;59.302;18.082;2023-06-04T07:53:16;0.57;;;0.57;;
17650;SDS011;26663;59.302;18.082;2023-06-04T07:56:21;0.60;;;0.60;;
17650;SDS011;26663;59.302;18.082;2023-06-04T07:59:26;0.70;;;0.70;;
17650;SDS011;26663;59.302;18.082;2023-06-04T08:02:33;0.70;;;0.70;;
17650;SDS011;26663;59.302;18.082;2023-06-04T08:05:39;1.55;;;0.80;;
17650;SDS011;26663;59.302;18.082;2023-06-04T08:08:44;0.70;;;0.70;;
17650;SDS011;26663;59.302;18.082;2023-06-04T08:11:51;0.80;;;0.60;;
17650;SDS011;26663;59.302;18.082;2023-06-04T08:14:56;0.65;;;0.65;;
17650;SDS011;26663;59.302;18.082;2023-06-04T08:18:03;0.60;;;0.60;;
17650;SDS011;26663;59.302;18.082;2023-06-04T08:21:08;1.10;;;0.60;;
17650;SDS011;26663;59.302;18.082;2023-06-04T08:24:14;0.60;;;0.60;;
17650;SDS011;26663;59.302;18.082;2023-06-04T08:27:20;0.75;;;0.75;;
17650;SDS011;26663;59.302;18.082;2023-06-04T08:30:25;0.63;;;0.63;;
17650;SDS011;26663;59.302;18.082;2023-06-04T08:33:32;0.63;;;0.63;;
17650;SDS011;26663;59.302;18.082;2023-06-04T08:36:37;0.60;;;0.60;;
17650;SDS011;26663;59.302;18.082;2023-06-04T08:39:42;0.80;;;0.80;;
17650;SDS011;26663;59.302;18.082;2023-06-04T08:42:47;0.63;;;0.63;;
17650;SDS011;26663;59.302;18.082;2023-06-04T08:45:53;1.85;;;0.50;;
17650;SDS011;26663;59.302;18.082;2023-06-04T08:49:06;3.35;;;0.60;;
17650;SDS011;26663;59.302;18.082;2023-06-04T08:52:11;1.05;;;1.05;;
17650;SDS011;26663;59.302;18.082;2023-06-04T08:55:17;0.60;;;0.60;;
17650;SDS011;26663;59.302;18.082;2023-06-04T08:58:22;0.60;;;0.60;;
17650;SDS011;26663;59.302;18.082;2023-06-04T09:01:28;0.80;;;0.80;;
17650;SDS011;26663;59.302;18.082;2023-06-04T09:04:35;0.73;;;0.73;;
17650;SDS011;26663;59.302;18.082;2023-06-04T09:07:40;0.60;;;0.60;;
17650;SDS011;26663;59.302;18.082;2023-06-04T09:10:46;0.70;;;0.70;;
17650;SDS011;26663;59.302;18.082;2023-06-04T09:13:54;1.10;;;1.10;;
17650;SDS011;26663;59.302;18.082;2023-06-04T09:17:03;1.10;;;1.10;;
17650;SDS011;26663;59.302;18.082;2023-06-04T09:20:22;0.90;;;0.90;;
17650;SDS011;26663;59.302;18.082;2023-06-04T09:23:28;0.60;;;0.60;;
17650;SDS011;26663;59.302;18.082;2023-06-04T09:26:34;0.70;;;0.70;;
17650;SDS011;26663;59.302;18.082;2023-06-04T09:29:39;0.90;;;0.77;;
17650;SDS011;26663;59.302;18.082;2023-06-04T09:32:53;0.68;;;0.68;;
17650;SDS011;26663;59.302;18.082;2023-06-04T09:35:59;0.70;;;0.70;;
17650;SDS011;26663;59.302;18.082;2023-06-04T09:39:14;0.70;;;0.68;;
17650;SDS011;26663;59.302;18.082;2023-06-04T09:42:20;0.70;;;0.70;;
17650;SDS011;26663;59.302;18.082;2023-06-04T09:45:29;0.88;;;0.88;;
17650;SDS011;26663;59.302;18.082;2023-06-04T09:48:35;2.40;;;0.80;;
17650;SDS011;26663;59.302;18.082;2023-06-04T09:51:48;0.77;;;0.77;;
17650;SDS011;26663;59.302;18.082;2023-06-04T09:54:53;1.90;;;0.80;;
17650;SDS011;26663;59.302;18.082;2023-06-04T09:57:59;0.80;;;0.80;;
17650;SDS011;26663;59.302;18.082;2023-06-04T10:01:05;0.80;;;0.80;;
17650;SDS011;26663;59.302;18.082;2023-06-04T10:04:11;0.80;;;0.80;;
17650;SDS011;26663;59.302;18.082;2023-06-04T10:07:19;0.73;;;0.73;;
17650;SDS011;26663;59.302;18.082;2023-06-04T10:10:25;0.80;;;0.80;;
17650;SDS011;26663;59.302;18.082;2023-06-04T10:13:31;0.85;;;0.85;;
17650;SDS011;26663;59.302;18.082;2023-06-04T10:16:42;1.75;;;0.80;;
17650;SDS011;26663;59.302;18.082;2023-06-04T10:19:47;0.90;;;0.90;;
17650;SDS011;26663;59.302;18.082;2023-06-04T10:22:56;0.88;;;0.88;;
17650;SDS011;26663;59.302;18.082;2023-06-04T10:26:02;0.80;;;0.80;;
17650;SDS011;26663;59.302;18.082;2023-06-04T10:29:08;0.70;;;0.70;;
17650;SDS011;26663;59.302;18.082;2023-06-04T10:32:13;0.90;;;0.90;;
17650;SDS011;26663;59.302;18.082;2023-06-04T10:35:28;1.05;;;1.05;;
17650;SDS011;26663;59.302;18.082;2023-06-04T10:38:44;0.80;;;0.80;;
17650;SDS011;26663;59.302;18.082;2023-06-04T10:41:56;0.50;;;0.50;;
17650;SDS011;26663;59.302;18.082;2023-06-04T10:45:03;0.52;;;0.52;;
17650;SDS011;26663;59.302;18.082;2023-06-04T10:48:11;0.80;;;0.80;;
17650;SDS011;26663;59.302;18.082;2023-06-04T10:51:28;0.77;;;0.77;;
17650;SDS011;26663;59.302;18.082;2023-06-04T10:54:35;0.70;;;0.70;;
17650;SDS011;26663;59.302;18.082;2023-06-04T10:57:50;0.90;;;0.90;;
17650;SDS011;26663;59.302;18.082;2023-06-04T11:00:56;0.90;;;0.90;;
17650;SDS011;26663;59.302;18.082;2023-06-04T11:04:02;0.80;;;0.80;;
17650;SDS011;26663;59.302;18.082;2023-06-04T11:07:07;0.85;;;0.85;;
17650;SDS011;26663;59.302;18.082;2023-06-04T11:10:15;0.77;;;0.77;;
17650;SDS011;26663;59.302;18.082;2023-06-04T11:13:22;0.80;;;0.80;;
17650;SDS011;26663;59.302;18.082;2023-06-04T11:16:31;0.73;;;0.70;;
17650;SDS011;26663;59.302;18.082;2023-06-04T11:19:37;1.25;;;1.25;;
17650;SDS011;26663;59.302;18.082;2023-06-04T11:22:42;0.70;;;0.70;;
17650;SDS011;26663;59.302;18.082;2023-06-04T11:25:55;0.90;;;0.70;;
17650;SDS011;26663;59.302;18.082;2023-06-04T11:29:01;0.90;;;0.90;;
17650;SDS011;26663;59.302;18.082;2023-06-04T11:32:20;1.35;;;0.60;;
17650;SDS011;26663;59.302;18.082;2023-06-04T11:35:26;0.90;;;0.90;;
17650;SDS011;26663;59.302;18.082;2023-06-04T11:38:32;1.00;;;1.00;;
17650;SDS011;26663;59.302;18.082;2023-06-04T11:41:38;0.90;;;0.90;;
17650;SDS011;26663;59.302;18.082;2023-06-04T11:44:46;2.28;;;0.80;;
17650;SDS011;26663;59.302;18.082;2023-06-04T11:47:52;2.38;;;1.30;;
17650;SDS011;26663;59.302;18.082;2023-06-04T11:50:59;1.20;;;1.20;;
17650;SDS011;26663;59.302;18.082;2023-06-04T11:54:12;1.58;;;1.10;;
17650;SDS011;26663;59.302;18.082;2023-06-04T11:57:18;1.10;;;1.10;;
17650;SDS011;26663;59.302;18.082;2023-06-04T12:00:23;0.80;;;0.80;;
17650;SDS011;26663;59.302;18.082;2023-06-04T12:03:35;0.95;;;0.63;;
17650;SDS011;26663;59.302;18.082;2023-06-04T12:06:50;1.65;;;1.02;;
17650;SDS011;26663;59.302;18.082;2023-06-04T12:10:04;1.00;;;1.00;;
17650;SDS011;26663;59.302;18.082;2023-06-04T12:13:11;0.65;;;0.65;;
17650;SDS011;26663;59.302;18.082;2023-06-04T12:16:18;0.70;;;0.70;;
17650;SDS011;26663;59.302;18.082;2023-06-04T12:19:23;0.98;;;0.98;;
17650;SDS011;26663;59.302;18.082;2023-06-04T12:22:30;0.82;;;0.82;;
17650;SDS011;26663;59.302;18.082;2023-06-04T12:25:35;1.70;;;0.80;;
17650;SDS011;26663;59.302;18.082;2023-06-04T12:28:43;0.80;;;0.80;;
17650;SDS011;26663;59.302;18.082;2023-06-04T12:31:48;0.95;;;0.80;;
17650;SDS011;26663;59.302;18.082;2023-06-04T12:34:54;0.70;;;0.70;;
17650;SDS011;26663;59.302;18.082;2023-06-04T12:37:59;1.00;;;1.00;;
17650;SDS011;26663;59.302;18.082;2023-06-04T12:41:07;0.90;;;0.90;;
17650;SDS011;26663;59.302;18.082;2023-06-04T12:44:14;0.70;;;0.70;;
17650;SDS011;26663;59.302;18.082;2023-06-04T12:47:19;3.45;;;0.63;;
17650;SDS011;26663;59.302;18.082;2023-06-04T12:50:25;3.30;;;0.80;;
17650;SDS011;26663;59.302;18.082;2023-06-04T12:53:30;1.08;;;0.80;;
17650;SDS011;26663;59.302;18.082;2023-06-04T12:56:36;0.95;;;0.70;;
17650;SDS011;26663;59.302;18.082;2023-06-04T12:59:43;1.17;;;1.05;;
17650;SDS011;26663;59.302;18.082;2023-06-04T13:02:48;0.60;;;0.60;;
17650;SDS011;26663;59.302;18.082;2023-06-04T13:05:54;3.33;;;0.70;;
17650;SDS011;26663;59.302;18.082;2023-06-04T13:08:59;1.00;;;0.70;;
17650;SDS011;26663;59.302;18.082;2023-06-04T13:12:06;1.75;;;0.90;;
17650;SDS011;26663;59.302;18.082;2023-06-04T13:15:13;0.68;;;0.68;;
17650;SDS011;26663;59.302;18.082;2023-06-04T13:18:19;0.80;;;0.80;;
17650;SDS011;26663;59.302;18.082;2023-06-04T13:21:24;1.48;;;0.77;;
17650;SDS011;26663;59.302;18.082;2023-06-04T13:24:29;0.70;;;0.70;;
17650;SDS011;26663;59.302;18.082;2023-06-04T13:27:35;2.85;;;0.80;;
17650;SDS011;26663;59.302;18.082;2023-06-04T13:30:41;0.70;;;0.70;;
17650;SDS011;26663;59.302;18.082;2023-06-04T13:33:47;0.70;;;0.70;;
17650;SDS011;26663;59.302;18.082;2023-06-04T13:36:52;0.80;;;0.80;;
17650;SDS011;26663;59.302;18.082;2023-06-04T13:39:59;1.23;;;0.70;;
17650;SDS011;26663;59.302;18.082;2023-06-04T13:43:04;0.77;;;0.70;;
17650;SDS011;26663;59.302;18.082;2023-06-04T13:46:11;1.98;;;0.80;;
17650;SDS011;26663;59.302;18.082;2023-06-04T13:49:16;2.35;;;0.70;;
17650;SDS011;26663;59.302;18.082;2023-06-04T13:52:22;2.28;;;0.80;;
17650;SDS011;26663;59.302;18.082;2023-06-04T13:55:28;2.10;;;0.85;;
17650;SDS011;26663;59.302;18.082;2023-06-04T13:58:34;1.00;;;1.00;;
17650;SDS011;26663;59.302;18.082;2023-06-04T14:01:41;1.48;;;0.70;;
17650;SDS011;26663;59.302;18.082;2023-06-04T14:04:46;1.65;;;0.77;;
17650;SDS011;26663;59.302;18.082;2023-06-04T14:07:53;1.33;;;0.73;;
17650;SDS011;26663;59.302;18.082;2023-06-04T14:10:58;0.80;;;0.80;;
17650;SDS011;26663;59.302;18.082;2023-06-04T14:14:04;2.08;;;0.70;;
17650;SDS011;26663;59.302;18.082;2023-06-04T14:17:11;1.13;;;1.13;;
17650;SDS011;26663;59.302;18.082;2023-06-04T14:20:16;1.20;;;0.93;;
17650;SDS011;26663;59.302;18.082;2023-06-04T14:23:21;0.80;;;0.80;;
17650;SDS011;26663;59.302;18.082;2023-06-04T14:26:26;0.80;;;0.80;;
17650;SDS011;26663;59.302;18.082;2023-06-04T14:29:32;0.93;;;0.80;;
17650;SDS011;26663;59.302;18.082;2023-06-04T14:32:42;0.80;;;0.80;;
17650;SDS011;26663;59.302;18.082;2023-06-04T14:35:47;1.40;;;0.80;;
17650;SDS011;26663;59.302;18.082;2023-06-04T14:38:52;0.90;;;0.90;;
17650;SDS011;26663;59.302;18.082;2023-06-04T14:41:58;1.08;;;0.80;;
17650;SDS011;26663;59.302;18.082;2023-06-04T14:45:03;1.20;;;0.82;;
17650;SDS011;26663;59.302;18.082;2023-06-04T14:51:19;2.03;;;0.82;;
17650;SDS011;26663;59.302;18.082;2023-06-04T14:54:26;0.82;;;0.82;;
17650;SDS011;26663;59.302;18.082;2023-06-04T14:57:32;2.78;;;1.17;;
17650;SDS011;26663;59.302;18.082;2023-06-04T15:00:37;0.75;;;0.75;;
17650;SDS011;26663;59.302;18.082;2023-06-04T15:03:44;2.38;;;1.25;;
17650;SDS011;26663;59.302;18.082;2023-06-04T15:06:49;0.85;;;0.85;;
17650;SDS011;26663;59.302;18.082;2023-06-04T15:09:54;1.30;;;0.80;;
17650;SDS011;26663;59.302;18.082;2023-06-04T15:13:00;0.90;;;0.90;;
17650;SDS011;26663;59.302;18.082;2023-06-04T15:16:05;1.50;;;1.40;;
17650;SDS011;26663;59.302;18.082;2023-06-04T15:19:13;1.15;;;1.15;;
17650;SDS011;26663;59.302;18.082;2023-06-04T15:22:18;1.08;;;1.08;;
17650;SDS011;26663;59.302;18.082;2023-06-04T15:25:23;3.40;;;0.80;;
17650;SDS011;26663;59.302;18.082;2023-06-04T15:28:32;0.80;;;0.80;;
17650;SDS011;26663;59.302;18.082;2023-06-04T15:31:37;3.05;;;0.80;;
17650;SDS011;26663;59.302;18.082;2023-06-04T15:34:43;1.00;;;1.00;;
17650;SDS011;26663;59.302;18.082;2023-06-04T15:37:49;0.80;;;0.80;;
17650;SDS011;26663;59.302;18.082;2023-06-04T15:40:54;6.50;;;0.82;;
17650;SDS011;26663;59.302;18.082;2023-06-04T15:43:59;0.77;;;0.77;;
17650;SDS011;26663;59.302;18.082;2023-06-04T15:47:05;0.70;;;0.70;;
17650;SDS011;26663;59.302;18.082;2023-06-04T15:50:12;1.63;;;0.80;;
17650;SDS011;26663;59.302;18.082;2023-06-04T15:53:17;0.90;;;0.90;;
17650;SDS011;26663;59.302;18.082;2023-06-04T15:56:22;3.13;;;0.77;;
17650;SDS011;26663;59.302;18.082;2023-06-04T15:59:28;1.95;;;0.90;;
17650;SDS011;26663;59.302;18.082;2023-06-04T16:02:33;1.00;;;1.00;;
17650;SDS011;26663;59.302;18.082;2023-06-04T16:05:40;0.80;;;0.80;;
17650;SDS011;26663;59.302;18.082;2023-06-04T16:08:45;1.70;;;0.90;;
17650;SDS011;26663;59.302;18.082;2023-06-04T16:11:50;4.90;;;1.10;;
17650;SDS011;26663;59.302;18.082;2023-06-04T16:14:55;4.60;;;0.88;;
17650;SDS011;26663;59.302;18.082;2023-06-04T16:18:00;0.98;;;0.90;;
17650;SDS011;26663;59.302;18.082;2023-06-04T16:21:09;1.35;;;0.80;;
17650;SDS011;26663;59.302;18.082;2023-06-04T16:24:14;2.83;;;1.00;;
17650;SDS011;26663;59.302;18.082;2023-06-04T16:27:19;1.95;;;0.80;;
17650;SDS011;26663;59.302;18.082;2023-06-04T16:30:24;3.15;;;0.90;;
17650;SDS011;26663;59.302;18.082;2023-06-04T16:33:33;1.75;;;1.00;;
17650;SDS011;26663;59.302;18.082;2023-06-04T16:36:39;2.05;;;1.50;;
17650;SDS011;26663;59.302;18.082;2023-06-04T16:39:45;3.20;;;1.75;;
17650;SDS011;26663;59.302;18.082;2023-06-04T16:42:50;4.40;;;1.40;;
17650;SDS011;26663;59.302;18.082;2023-06-04T16:45:56;7.57;;;1.70;;
17650;SDS011;26663;59.302;18.082;2023-06-04T16:49:01;2.47;;;1.73;;
17650;SDS011;26663;59.302;18.082;2023-06-04T16:52:08;2.63;;;1.42;;
17650;SDS011;26663;59.302;18.082;2023-06-04T16:55:13;1.17;;;1.17;;
17650;SDS011;26663;59.302;18.082;2023-06-04T16:58:19;2.97;;;2.38;;
17650;SDS011;26663;59.302;18.082;2023-06-04T17:01:24;1.75;;;1.30;;
17650;SDS011;26663;59.302;18.082;2023-06-04T17:04:29;0.80;;;0.80;;
17650;SDS011;26663;59.302;18.082;2023-06-04T17:07:37;0.80;;;0.80;;
17650;SDS011;26663;59.302;18.082;2023-06-04T17:10:42;4.07;;;0.90;;
17650;SDS011;26663;59.302;18.082;2023-06-04T17:13:49;1.33;;;0.90;;
17650;SDS011;26663;59.302;18.082;2023-06-04T17:16:55;0.82;;;0.82;;
17650;SDS011;26663;59.302;18.082;2023-06-04T17:20:00;8.32;;;1.10;;
17650;SDS011;26663;59.302;18.082;2023-06-04T17:23:19;0.95;;;0.95;;
17650;SDS011;26663;59.302;18.082;2023-06-04T17:26:25;7.03;;;3.30;;
17650;SDS011;26663;59.302;18.082;2023-06-04T17:29:30;0.98;;;0.90;;
17650;SDS011;26663;59.302;18.082;2023-06-04T17:32:35;0.98;;;0.98;;
17650;SDS011;26663;59.302;18.082;2023-06-04T17:35:41;0.90;;;0.90;;
17650;SDS011;26663;59.302;18.082;2023-06-04T17:38:48;7.43;;;1.00;;
17650;SDS011;26663;59.302;18.082;2023-06-04T17:41:53;2.38;;;0.85;;
17650;SDS011;26663;59.302;18.082;2023-06-04T17:45:00;2.13;;;0.80;;
17650;SDS011;26663;59.302;18.082;2023-06-04T17:48:11;0.90;;;0.90;;
17650;SDS011;26663;59.302;18.082;2023-06-04T17:51:16;0.80;;;0.80;;
17650;SDS011;26663;59.302;18.082;2023-06-04T17:54:23;0.90;;;0.90;;
17650;SDS011;26663;59.302;18.082;2023-06-04T17:57:29;1.45;;;1.00;;
17650;SDS011;26663;59.302;18.082;2023-06-04T18:00:34;0.80;;;0.80;;
17650;SDS011;26663;59.302;18.082;2023-06-04T18:03:39;0.80;;;0.80;;
17650;SDS011;26663;59.302;18.082;2023-06-04T18:06:44;2.28;;;0.80;;
17650;SDS011;26663;59.302;18.082;2023-06-04T18:09:51;2.65;;;1.17;;
17650;SDS011;26663;59.302;18.082;2023-06-04T18:12:56;1.00;;;0.90;;
17650;SDS011;26663;59.302;18.082;2023-06-04T18:16:01;2.25;;;1.15;;
17650;SDS011;26663;59.302;18.082;2023-06-04T18:19:06;2.85;;;1.00;;
17650;SDS011;26663;59.302;18.082;2023-06-04T18:22:14;2.50;;;1.02;;
17650;SDS011;26663;59.302;18.082;2023-06-04T18:25:23;1.58;;;1.10;;
17650;SDS011;26663;59.302;18.082;2023-06-04T18:28:29;1.80;;;0.90;;
17650;SDS011;26663;59.302;18.082;2023-06-04T18:31:34;1.40;;;1.40;;
17650;SDS011;26663;59.302;18.082;2023-06-04T18:34:39;0.90;;;0.90;;